createdAt,value
2018-09-04T00:02:08.377Z,14.20
2018-09-04T00:04:37.913Z,13.97
2018-09-04T00:07:06.873Z,15.90
2018-09-04T00:09:35.735Z,15.33
2018-09-04T00:12:04.572Z,14.33
2018-09-04T00:14:33.818Z,13.37
2018-09-04T00:17:03.566Z,14.03
2018-09-04T00:19:33.426Z,12.83
2018-09-04T00:22:03.810Z,14.77
2018-09-04T00:24:32.725Z,15.00
2018-09-04T00:27:01.619Z,13.33
2018-09-04T00:29:30.400Z,13.93
2018-09-04T00:32:02.426Z,13.57
2018-09-04T00:34:31.355Z,12.63
2018-09-04T00:37:00.245Z,13.40
2018-09-04T00:39:29.663Z,12.63
2018-09-04T00:41:58.461Z,12.33
2018-09-04T00:44:27.369Z,12.57
2018-09-04T00:46:56.531Z,12.03
2018-09-04T00:49:25.413Z,12.87
2018-09-04T00:51:54.464Z,12.60
2018-09-04T00:54:23.314Z,13.47
2018-09-04T00:56:52.472Z,12.90
2018-09-04T00:59:21.334Z,14.20
2018-09-04T01:01:50.192Z,14.27
2018-09-04T01:04:19.068Z,13.97
2018-09-04T01:06:47.951Z,16.13
2018-09-04T01:09:19.330Z,17.57
2018-09-04T01:11:48.200Z,15.70
2018-09-04T01:14:17.494Z,16.40
2018-09-04T01:16:47.243Z,19.00
2018-09-04T01:19:16.052Z,16.53
2018-09-04T01:21:45.341Z,15.67
2018-09-04T01:24:14.178Z,16.33
2018-09-04T01:26:43.616Z,16.50
2018-09-04T01:29:12.613Z,16.03
2018-09-04T01:31:41.958Z,16.40
2018-09-04T01:34:10.861Z,16.07
2018-09-04T01:36:39.735Z,18.13
2018-09-04T01:39:08.628Z,18.60
2018-09-04T01:41:37.721Z,16.97
2018-09-04T01:44:06.611Z,16.37
2018-09-04T01:46:35.480Z,18.53
2018-09-04T01:49:04.385Z,17.60
2018-09-04T01:51:33.254Z,19.00
2018-09-04T01:54:02.393Z,17.47
2018-09-04T01:56:33.117Z,16.90
2018-09-04T01:59:02.024Z,17.20
2018-09-04T02:01:30.868Z,17.33
2018-09-04T02:03:59.731Z,18.07
2018-09-04T02:06:28.561Z,16.67
2018-09-04T02:08:57.424Z,17.20
2018-09-04T02:11:26.295Z,16.33
2018-09-04T02:13:55.500Z,16.97
2018-09-04T02:16:24.480Z,18.37
2018-09-04T02:18:53.569Z,17.67
2018-09-04T02:21:22.388Z,17.17
2018-09-04T02:23:51.197Z,17.57
2018-09-04T02:26:20.043Z,17.23
2018-09-04T02:28:49.257Z,18.17
2018-09-04T02:31:18.092Z,18.13
2018-09-04T02:33:46.926Z,17.67
2018-09-04T02:36:16.097Z,17.93
2018-09-04T02:38:44.967Z,17.70
2018-09-04T02:41:14.405Z,18.63
2018-09-04T02:43:43.280Z,19.53
2018-09-04T02:46:12.157Z,18.10
2018-09-04T02:48:41.809Z,20.17
2018-09-04T02:51:10.688Z,21.27
2018-09-04T02:53:39.591Z,19.93
2018-09-04T02:56:08.528Z,20.97
2018-09-04T02:58:37.822Z,19.67
2018-09-04T03:01:09.555Z,18.80
2018-09-04T03:03:38.434Z,19.83
2018-09-04T03:06:07.318Z,19.30
2018-09-04T03:08:36.182Z,18.50
2018-09-04T03:11:05.076Z,19.10
2018-09-04T03:13:34.413Z,20.77
2018-09-04T03:16:03.226Z,19.60
2018-09-04T03:18:32.076Z,18.33
2018-09-04T03:21:01.013Z,24.40
2018-09-04T03:23:29.841Z,23.97
2018-09-04T03:25:59.122Z,27.63
2018-09-04T03:28:28.008Z,32.30
2018-09-04T03:30:57.253Z,30.73
2018-09-04T03:33:26.140Z,30.33
2018-09-04T03:35:55.040Z,28.97
2018-09-04T03:38:23.905Z,29.17
2018-09-04T03:40:53.169Z,27.93
2018-09-04T03:43:22.120Z,28.07
2018-09-04T03:45:50.920Z,29.00
2018-09-04T03:48:19.888Z,29.40
2018-09-04T03:50:49.739Z,36.07
2018-09-04T03:53:19.370Z,31.80
2018-09-04T03:55:48.202Z,30.50
2018-09-04T03:58:17.060Z,29.20
2018-09-04T04:00:45.884Z,29.50
2018-09-04T04:03:14.767Z,29.10
2018-09-04T04:05:44.316Z,30.93
2018-09-04T04:08:13.138Z,32.33
2018-09-04T04:10:42.006Z,31.77
2018-09-04T04:13:10.893Z,33.37
2018-09-04T04:15:40.181Z,35.90
2018-09-04T04:18:10.737Z,34.70
2018-09-04T04:20:39.704Z,36.27
2018-09-04T04:23:09.589Z,35.17
2018-09-04T04:25:39.135Z,34.93
2018-09-04T04:28:08.200Z,34.53
2018-09-04T04:30:37.085Z,36.77
2018-09-04T04:33:06.566Z,34.70
2018-09-04T04:35:37.113Z,37.17
2018-09-04T04:38:06.002Z,38.03
2018-09-04T04:40:34.886Z,42.07
2018-09-04T04:43:04.242Z,38.77
2018-09-04T04:45:33.104Z,38.40
2018-09-04T04:48:01.933Z,37.70
2018-09-04T04:50:30.768Z,40.23
2018-09-04T04:52:59.549Z,37.93
2018-09-04T04:55:28.397Z,41.57
2018-09-04T04:57:57.573Z,39.40
2018-09-04T05:00:27.430Z,40.07
2018-09-04T05:02:56.404Z,38.20
2018-09-04T05:05:25.306Z,39.57
2018-09-04T05:07:54.187Z,37.63
2018-09-04T05:10:23.003Z,37.17
2018-09-04T05:12:53.869Z,37.20
2018-09-04T05:15:23.229Z,37.00
2018-09-04T05:17:52.020Z,36.93
2018-09-04T05:20:23.148Z,38.63
2018-09-04T05:22:52.379Z,35.97
2018-09-04T05:25:21.308Z,35.23
2018-09-04T05:27:50.167Z,36.20
2018-09-04T05:30:19.295Z,35.43
2018-09-04T05:32:54.292Z,35.10
2018-09-04T05:35:23.195Z,33.97
2018-09-04T05:37:52.097Z,35.47
2018-09-04T05:40:23.074Z,34.23
2018-09-04T05:42:54.476Z,36.20
2018-09-04T05:45:24.952Z,34.90
2018-09-04T05:48:00.351Z,34.37
2018-09-04T05:50:29.263Z,33.33
2018-09-04T05:52:58.481Z,34.60
2018-09-04T05:55:27.673Z,35.87
2018-09-04T05:57:57.591Z,35.63
2018-09-04T06:00:29.915Z,36.20
2018-09-04T06:02:58.782Z,37.20
2018-09-04T06:05:28.072Z,36.63
2018-09-04T06:07:57.516Z,36.13
2018-09-04T06:10:26.336Z,38.50
2018-09-04T06:15:32.285Z,35.97
2018-09-04T06:18:01.301Z,34.40
2018-09-04T06:20:33.672Z,37.53
2018-09-04T06:23:03.405Z,35.57
2018-09-04T06:25:33.416Z,37.43
2018-09-04T06:28:02.373Z,36.87
2018-09-04T06:33:30.584Z,35.37
2018-09-04T06:36:10.640Z,35.87
2018-09-04T06:38:39.432Z,34.17
2018-09-04T06:41:08.244Z,36.27
2018-09-04T06:43:37.105Z,35.73
2018-09-04T06:46:06.345Z,33.87
2018-09-04T06:48:37.266Z,35.17
2018-09-04T06:51:06.129Z,32.50
2018-09-04T06:53:35.019Z,32.87
2018-09-04T06:56:03.844Z,33.30
2018-09-04T06:58:32.775Z,33.50
2018-09-04T07:01:03.837Z,34.47
2018-09-04T07:03:32.704Z,32.93
2018-09-04T07:06:02.406Z,33.90
2018-09-04T07:08:31.613Z,33.17
2018-09-04T07:11:00.489Z,34.27
2018-09-04T07:13:31.091Z,34.33
2018-09-04T07:15:59.896Z,33.77
2018-09-04T07:18:29.785Z,33.80
2018-09-04T07:20:59.258Z,34.30
2018-09-04T07:23:28.493Z,34.03
2018-09-04T07:25:57.299Z,32.60
2018-09-04T07:28:26.607Z,31.37
2018-09-04T07:30:55.566Z,31.63
2018-09-04T07:33:25.428Z,31.23
2018-09-04T07:35:55.287Z,30.50
2018-09-04T07:38:25.412Z,30.80
2018-09-04T07:40:55.905Z,31.67
2018-09-04T07:43:27.352Z,30.20
2018-09-04T07:45:56.510Z,29.07
2018-09-04T07:48:25.688Z,28.10
2018-09-04T07:50:56.441Z,28.77
2018-09-04T07:53:25.877Z,28.50
2018-09-04T07:55:54.704Z,29.97
2018-09-04T07:58:24.454Z,28.53
2018-09-04T08:00:53.336Z,27.47
2018-09-04T08:03:23.333Z,28.33
2018-09-04T08:05:53.198Z,28.20
2018-09-04T08:08:22.668Z,28.63
2018-09-04T08:10:52.435Z,28.33
2018-09-04T08:13:21.276Z,28.57
2018-09-04T08:15:50.686Z,30.10
2018-09-04T08:18:20.529Z,30.57
2018-09-04T08:20:49.493Z,31.40
2018-09-04T08:23:18.328Z,30.73
2018-09-04T08:25:47.175Z,30.67
2018-09-04T08:28:18.533Z,31.17
2018-09-04T08:30:47.461Z,32.03
2018-09-04T08:33:17.135Z,32.37
2018-09-04T08:35:46.552Z,32.97
2018-09-04T08:38:15.412Z,33.10
2018-09-04T08:40:44.511Z,33.00
2018-09-04T08:43:14.090Z,33.27
2018-09-04T08:45:46.235Z,31.67
2018-09-04T08:48:18.190Z,31.80
2018-09-04T08:50:50.611Z,31.50
2018-09-04T08:53:22.454Z,32.37
2018-09-04T08:55:52.494Z,30.03
2018-09-04T08:58:21.328Z,30.13
2018-09-04T09:00:53.722Z,29.57
2018-09-04T09:03:24.943Z,29.97
2018-09-04T09:05:55.781Z,29.50
2018-09-04T09:08:24.710Z,28.43
2018-09-04T09:10:58.562Z,28.23
2018-09-04T09:13:28.497Z,29.90
2018-09-04T09:15:57.847Z,29.20
2018-09-04T09:18:27.522Z,30.97
2018-09-04T09:20:56.341Z,31.93
2018-09-04T09:23:27.998Z,29.47
2018-09-04T09:25:58.980Z,30.67
2018-09-04T09:28:27.819Z,31.20
2018-09-04T09:30:57.181Z,29.73
2018-09-04T09:33:29.491Z,29.07
2018-09-04T09:35:58.459Z,28.33
2018-09-04T09:38:29.820Z,27.57
2018-09-04T09:40:59.357Z,27.23
2018-09-04T09:43:30.061Z,28.53
2018-09-04T09:45:59.216Z,29.73
2018-09-04T09:48:34.362Z,24.57
2018-09-04T09:51:04.446Z,25.63
2018-09-04T09:53:35.322Z,28.40
2018-09-04T09:56:04.035Z,29.30
2018-09-04T09:58:35.142Z,27.40
2018-09-04T10:01:10.281Z,27.10
2018-09-04T10:03:49.300Z,28.63
2018-09-04T10:06:19.431Z,25.37
2018-09-04T10:08:50.421Z,24.33
2018-09-04T10:11:20.062Z,24.97
2018-09-04T10:13:49.424Z,26.53
2018-09-04T10:16:18.755Z,24.90
2018-09-04T10:18:49.185Z,26.50
2018-09-04T10:21:21.684Z,26.67
2018-09-04T10:23:51.724Z,24.50
2018-09-04T10:26:20.668Z,25.57
2018-09-04T10:28:50.768Z,23.77
2018-09-04T10:31:19.713Z,22.90
2018-09-04T10:33:50.072Z,22.33
2018-09-04T10:36:19.473Z,21.93
2018-09-04T10:38:50.901Z,23.30
2018-09-04T10:41:19.789Z,23.67
2018-09-04T10:47:47.558Z,28.03
2018-09-04T10:50:17.105Z,27.50
2018-09-04T10:52:46.961Z,25.50
2018-09-04T10:55:16.487Z,23.60
2018-09-04T10:57:45.457Z,23.50
2018-09-04T11:00:16.712Z,22.77
2018-09-04T11:02:48.038Z,25.47
2018-09-04T11:05:17.505Z,24.80
2018-09-04T11:07:46.409Z,24.93
2018-09-04T11:10:16.669Z,23.67
2018-09-04T11:12:45.653Z,24.27
2018-09-04T11:15:15.285Z,23.53
2018-09-04T11:17:44.836Z,26.37
2018-09-04T11:20:15.386Z,28.43
2018-09-04T11:22:44.573Z,25.87
2018-09-04T11:25:13.801Z,28.33
2018-09-04T11:27:44.043Z,28.33
2018-09-04T11:30:14.168Z,30.47
2018-09-04T11:32:43.609Z,28.57
2018-09-04T11:35:14.006Z,28.20
2018-09-04T11:37:42.889Z,29.07
2018-09-04T11:40:12.568Z,29.90
2018-09-04T11:42:42.256Z,30.77
2018-09-04T11:45:11.603Z,31.50
2018-09-04T11:47:42.692Z,28.50
2018-09-04T11:50:12.223Z,29.27
2018-09-04T11:52:42.228Z,26.97
2018-09-04T11:55:12.623Z,26.80
2018-09-04T11:57:44.811Z,28.83
2018-09-04T12:00:17.924Z,29.20
2018-09-04T12:02:49.349Z,29.27
2018-09-04T12:05:18.534Z,28.30
2018-09-04T12:07:51.880Z,28.90
2018-09-04T12:10:21.592Z,27.83
2018-09-04T12:12:51.707Z,27.57
2018-09-04T12:15:21.096Z,29.53
2018-09-04T12:17:50.003Z,26.33
2018-09-04T12:21:11.957Z,27.73
2018-09-04T12:23:41.125Z,28.33
2018-09-04T12:26:11.902Z,28.50
2018-09-04T12:28:42.942Z,27.77
2018-09-04T12:31:13.216Z,28.23
2018-09-04T12:33:43.283Z,27.20
2018-09-04T12:36:12.118Z,27.00
2018-09-04T12:38:42.914Z,26.40
2018-09-04T12:41:14.770Z,27.87
2018-09-04T12:43:43.706Z,25.67
2018-09-04T12:46:13.120Z,27.50
2018-09-04T12:48:48.272Z,27.23
2018-09-04T12:51:18.373Z,26.00
2018-09-04T12:53:47.632Z,24.43
2018-09-04T12:56:22.481Z,24.00
2018-09-04T12:58:51.442Z,23.20
2018-09-04T13:01:20.596Z,22.10
2018-09-04T13:03:50.190Z,21.57
2018-09-04T13:06:19.839Z,24.10
2018-09-04T13:08:48.730Z,23.27
2018-09-04T13:11:17.595Z,23.00
2018-09-04T13:13:47.288Z,21.40
2018-09-04T13:16:17.608Z,18.87
2018-09-04T13:18:47.239Z,21.23
2018-09-04T13:21:20.317Z,21.03
2018-09-04T13:23:54.151Z,22.60
2018-09-04T13:26:23.125Z,20.13
2018-09-04T13:28:52.975Z,21.30
2018-09-04T13:31:21.838Z,21.50
2018-09-04T13:33:52.008Z,22.23
2018-09-04T13:36:21.833Z,20.30
2018-09-04T13:38:50.709Z,20.57
2018-09-04T13:41:23.217Z,19.97
2018-09-04T13:43:53.306Z,21.80
2018-09-04T13:46:26.374Z,20.43
2018-09-04T13:48:57.379Z,20.23
2018-09-04T13:51:26.825Z,19.20
2018-09-04T13:53:56.678Z,17.67
2018-09-04T13:56:32.564Z,19.60
2018-09-04T13:59:04.543Z,19.07
2018-09-04T14:01:34.407Z,19.70
2018-09-04T14:04:05.308Z,18.47
2018-09-04T14:06:34.507Z,18.33
2018-09-04T14:09:10.760Z,19.67
2018-09-04T14:11:42.499Z,21.07
2018-09-04T14:14:12.560Z,20.77
2018-09-04T14:16:43.148Z,20.10
2018-09-04T14:19:10.727Z,20.27
2018-09-04T14:21:40.272Z,19.07
2018-09-04T14:24:09.460Z,18.93
2018-09-04T14:26:40.329Z,17.63
2018-09-04T14:29:10.513Z,18.03
2018-09-04T14:31:39.436Z,17.30
2018-09-04T14:34:08.856Z,17.87
2018-09-04T14:36:38.658Z,17.60
2018-09-04T14:39:10.426Z,15.67
2018-09-04T14:41:39.377Z,16.83
2018-09-04T14:44:09.652Z,16.17
2018-09-04T14:46:41.148Z,16.13
2018-09-04T14:49:10.052Z,17.00
2018-09-04T14:51:39.432Z,15.27
2018-09-04T14:54:09.510Z,16.77
2018-09-04T14:56:38.757Z,19.13
2018-09-04T14:59:08.309Z,23.27
2018-09-04T15:01:37.552Z,38.63
2018-09-04T15:04:06.624Z,14.00
2018-09-04T15:06:38.992Z,15.07
2018-09-04T15:09:07.884Z,21.13
2018-09-04T15:11:36.664Z,17.80
2018-09-04T15:14:07.139Z,17.90
2018-09-04T15:16:36.404Z,16.97
2018-09-04T15:19:05.988Z,17.63
2018-09-04T15:21:34.852Z,15.43
2018-09-04T15:24:03.956Z,12.87
2018-09-04T15:26:34.269Z,12.67
2018-09-04T15:29:06.210Z,11.77
2018-09-04T15:31:41.285Z,12.53
2018-09-04T15:34:10.738Z,11.43
2018-09-04T15:36:40.216Z,11.77
2018-09-04T15:39:09.044Z,12.40
2018-09-04T15:41:37.987Z,12.37
2018-09-04T15:44:06.832Z,10.33
2018-09-04T15:46:36.084Z,11.27
2018-09-04T15:49:10.358Z,12.13
2018-09-04T15:51:39.181Z,10.90
2018-09-04T15:54:09.124Z,10.80
2018-09-04T15:56:38.016Z,11.70
2018-09-04T15:59:07.509Z,10.67
2018-09-04T16:01:36.408Z,9.53
2018-09-04T16:04:05.420Z,9.37
2018-09-04T16:06:36.536Z,10.03
2018-09-04T16:09:08.397Z,9.67
2018-09-04T16:11:38.844Z,9.10
2018-09-04T16:14:10.779Z,9.80
2018-09-04T16:16:50.171Z,9.60
2018-09-04T16:19:26.838Z,11.00
2018-09-04T16:22:00.955Z,9.97
2018-09-04T16:24:34.198Z,10.83
2018-09-04T16:27:05.518Z,10.03
2018-09-04T16:32:54.552Z,9.77
2018-09-04T16:35:24.370Z,9.37
2018-09-04T16:37:57.709Z,8.67
2018-09-04T16:40:26.512Z,9.70
2018-09-04T16:42:59.190Z,9.63
2018-09-04T16:45:28.182Z,9.10
2018-09-04T16:48:01.217Z,10.07
2018-09-04T16:50:31.709Z,9.77
2018-09-04T16:53:01.105Z,9.77
2018-09-04T16:55:34.608Z,9.20
2018-09-04T16:58:03.548Z,9.43
2018-09-04T17:00:33.388Z,11.00
2018-09-04T17:03:05.076Z,10.50
2018-09-04T17:05:34.693Z,10.67
2018-09-04T17:08:07.180Z,11.20
2018-09-04T17:10:41.224Z,10.47
2018-09-04T17:13:11.501Z,11.63
2018-09-04T17:15:41.562Z,13.40
2018-09-04T17:18:12.252Z,12.47
2018-09-04T17:20:42.397Z,11.83
2018-09-04T17:23:13.625Z,12.53
2018-09-04T17:25:43.506Z,13.03
2018-09-04T17:28:13.637Z,11.37
2018-09-04T17:30:43.214Z,12.47
2018-09-04T17:33:12.967Z,11.93
2018-09-04T17:35:46.657Z,11.33
2018-09-04T17:38:27.198Z,11.97
2018-09-04T17:40:59.732Z,13.07
2018-09-04T17:43:44.160Z,12.70
2018-09-04T17:46:13.439Z,12.27
2018-09-04T17:48:44.256Z,12.87
2018-09-04T17:51:17.374Z,12.07
2018-09-04T17:53:46.265Z,12.27
2018-09-04T17:56:19.204Z,12.43
2018-09-04T17:58:49.649Z,12.37
2018-09-04T18:01:19.479Z,12.87
2018-09-04T18:03:52.959Z,12.37
2018-09-04T18:06:36.062Z,11.97
2018-09-04T18:09:08.284Z,13.27
2018-09-04T18:11:37.806Z,12.70
2018-09-04T18:14:07.225Z,12.23
2018-09-04T18:16:36.164Z,12.27
2018-09-04T18:19:05.459Z,13.13
2018-09-04T18:24:30.466Z,12.17
2018-09-04T18:26:59.411Z,12.47
2018-09-04T18:29:28.272Z,13.03
2018-09-04T18:31:58.047Z,13.57
2018-09-04T18:34:27.907Z,12.93
2018-09-04T18:37:01.318Z,13.53
2018-09-04T18:39:31.763Z,13.47
2018-09-04T18:42:00.747Z,13.37
2018-09-04T18:44:31.331Z,12.87
2018-09-04T18:47:00.621Z,14.17
2018-09-04T18:49:30.809Z,13.60
2018-09-04T18:51:59.715Z,13.03
2018-09-04T18:57:05.225Z,12.93
2018-09-04T18:59:34.279Z,13.43
2018-09-04T19:02:04.138Z,12.43
2018-09-04T19:04:32.985Z,14.10
2018-09-04T19:07:02.133Z,13.80
2018-09-04T19:10:03.605Z,14.03
2018-09-04T19:12:34.079Z,13.83
2018-09-04T19:15:02.949Z,13.23
2018-09-04T19:17:32.312Z,14.30
2018-09-04T19:20:01.813Z,14.33
2018-09-04T19:22:31.909Z,14.03
2018-09-04T19:25:00.751Z,13.83
2018-09-04T19:27:30.604Z,13.63
2018-09-04T19:30:02.617Z,14.77
2018-09-04T19:32:32.612Z,14.40
2018-09-04T19:35:02.812Z,13.47
2018-09-04T19:37:31.622Z,13.80
2018-09-04T19:40:00.514Z,14.43
2018-09-04T19:42:29.376Z,14.63
2018-09-04T19:45:00.412Z,15.33
2018-09-04T19:47:30.449Z,15.33
2018-09-04T19:50:01.648Z,15.73
2018-09-04T19:52:30.563Z,15.37
2018-09-04T19:55:00.885Z,15.67
2018-09-04T19:57:31.995Z,16.60
2018-09-04T20:00:00.837Z,15.20
2018-09-04T20:02:31.549Z,16.90
2018-09-04T20:05:00.490Z,16.53
2018-09-04T20:07:30.663Z,16.07
2018-09-04T20:09:59.706Z,15.70
2018-09-04T20:12:29.186Z,16.40
2018-09-04T20:15:02.345Z,16.30
2018-09-04T20:17:31.475Z,16.27
2018-09-04T20:20:01.750Z,15.37
2018-09-04T20:22:31.130Z,15.53
2018-09-04T20:25:00.530Z,15.20
2018-09-04T20:27:29.337Z,16.00
2018-09-04T20:29:58.697Z,15.43
2018-09-04T20:32:30.663Z,15.50
2018-09-04T20:34:59.782Z,16.00
2018-09-04T20:37:29.452Z,14.87
2018-09-04T20:39:58.331Z,15.30
2018-09-04T20:42:27.687Z,15.00
2018-09-04T20:44:58.405Z,16.27
2018-09-04T20:47:27.257Z,16.27
2018-09-04T20:49:57.765Z,15.50
2018-09-04T20:52:28.992Z,15.50
2018-09-04T20:54:57.886Z,15.73
2018-09-04T20:57:47.281Z,15.87
2018-09-04T21:00:27.398Z,15.53
2018-09-04T21:03:08.704Z,15.57
2018-09-04T21:05:48.492Z,15.83
2018-09-04T21:08:23.513Z,14.83
2018-09-04T21:10:58.658Z,16.33
2018-09-04T21:14:01.189Z,17.27
2018-09-04T21:16:32.412Z,16.17
2018-09-04T21:19:03.185Z,16.27
2018-09-04T21:21:37.847Z,16.70
2018-09-04T21:24:08.489Z,15.93
2018-09-04T21:26:39.222Z,16.37
2018-09-04T21:29:14.143Z,15.83
2018-09-04T21:31:43.982Z,15.90
2018-09-04T21:34:14.318Z,15.50
2018-09-04T21:36:43.173Z,15.73
2018-09-04T21:39:14.851Z,16.63
2018-09-04T21:41:45.290Z,16.77
2018-09-04T21:44:14.519Z,16.10
2018-09-04T21:46:43.394Z,15.23
2018-09-04T21:49:12.472Z,15.87
2018-09-04T21:51:48.588Z,16.40
2018-09-04T21:54:17.516Z,16.93
2018-09-04T21:56:46.414Z,15.77
2018-09-04T21:59:17.278Z,16.30
2018-09-04T22:01:48.346Z,18.70
2018-09-04T22:04:18.472Z,17.33
2018-09-04T22:06:48.333Z,17.00
2018-09-04T22:09:18.284Z,16.30
2018-09-04T22:11:49.310Z,16.97
2018-09-04T22:14:19.333Z,17.00
2018-09-04T22:16:48.744Z,16.20
2018-09-04T22:20:33.129Z,17.43
2018-09-04T22:23:02.898Z,15.33
2018-09-04T22:25:32.609Z,15.10
2018-09-04T22:28:02.577Z,15.43
2018-09-04T22:30:31.703Z,16.07
2018-09-04T22:33:00.559Z,16.37
2018-09-04T22:35:29.988Z,16.20
2018-09-04T22:37:59.886Z,15.63
2018-09-04T22:40:28.731Z,17.07
2018-09-04T22:42:58.962Z,16.17
2018-09-04T22:45:27.868Z,16.83
2018-09-04T22:47:57.849Z,17.23
2018-09-04T22:50:32.205Z,16.60
2018-09-04T22:53:01.097Z,15.83
2018-09-04T22:55:29.909Z,16.30
2018-09-04T22:58:00.362Z,16.17
2018-09-04T23:00:30.492Z,17.07
2018-09-04T23:02:59.320Z,15.37
2018-09-04T23:05:28.897Z,16.17
2018-09-04T23:07:57.727Z,15.87
2018-09-04T23:10:26.540Z,15.77
2018-09-04T23:12:55.403Z,16.43
2018-09-04T23:15:24.276Z,16.53
2018-09-04T23:17:53.476Z,15.93
2018-09-04T23:20:22.334Z,16.23
2018-09-04T23:22:51.154Z,15.87
2018-09-04T23:25:20.317Z,15.17
2018-09-04T23:27:49.161Z,16.07
2018-09-04T23:30:17.957Z,15.23
2018-09-04T23:32:47.215Z,14.87
2018-09-04T23:35:17.414Z,15.33
2018-09-04T23:37:48.157Z,15.43
2018-09-04T23:40:17.046Z,16.30
2018-09-04T23:42:47.055Z,15.47
2018-09-04T23:45:17.459Z,15.63
2018-09-04T23:47:47.011Z,15.87
2018-09-04T23:50:16.216Z,14.97
2018-09-04T23:52:45.087Z,15.57
2018-09-04T23:55:13.926Z,15.47
2018-09-04T23:57:43.728Z,15.30
